ROC weather

Greater Rochester International Airport
Rochester, New York, United States

Public forecast

Using degrees Fahrenheit for public forecast. Weather courtesy of forecast.io.

Current aviation weather report (METAR) for Greater Rochester International Airport

Retrieved 2019/11/20 12:54 UTC (20 minutes ago):

KROC 201254Z 26004KT 10SM OVC015 02/M01 A3005 RMK AO2 SLP184 T00221006

Aviation forecast (TAF) for Greater Rochester International Airport

Retrieved 2019/11/20 12:27 UTC (47 minutes ago):

TAF KROC 201124Z 2012/2112 30004KT P6SM OVC015 FM201800 31008KT P6SM BKN020 FM202200 29006KT P6SM BKN035 FM210900 25004KT P6SM BKN025